Time;durP1;ratioP1;P1;durP2;ratioP2;P2;SDS_P1;SDS_P2;PMS_P1;PMS_P2;Temp;Humidity;BMP_temperature;BMP_pressure;BME280_temperature;BME280_humidity;BME280_pressure;Samples;Min_cycle;Max_cycle;Signal;HPM_P1;HPM_P2
2023/05/06 00:01:56;;;;;;;0.10;0.10;;;17.10;99.90;;;;;;5096550;28;20032;-87
2023/05/06 00:04:22;;;;;;;0.20;0.20;;;17.20;99.90;;;;;;5097020;28;20027;-87
2023/05/06 00:06:48;;;;;;;0.10;0.10;;;17.10;99.90;;;;;;5095280;28;20038;-87
2023/05/06 00:09:13;;;;;;;0.10;0.10;;;17.10;99.90;;;;;;5096657;28;20020;-87
2023/05/06 00:11:39;;;;;;;0.03;0.03;;;17.10;99.90;;;;;;5096298;28;20028;-86
2023/05/06 00:14:05;;;;;;;0.30;0.30;;;17.00;99.90;;;;;;5096315;28;20396;-86
2023/05/06 00:16:31;;;;;;;0.17;0.17;;;17.00;99.90;;;;;;5096081;28;20055;-86
2023/05/06 00:18:56;;;;;;;0.17;0.17;;;17.10;99.90;;;;;;5096189;28;20040;-86
2023/05/06 00:21:22;;;;;;;0.00;0.00;;;17.10;99.90;;;;;;5095446;28;20047;-87
2023/05/06 00:23:48;;;;;;;0.10;0.10;;;17.10;99.90;;;;;;5096092;28;20031;-86
2023/05/06 00:26:14;;;;;;;0.10;0.10;;;17.10;99.90;;;;;;5094712;28;20385;-87
2023/05/06 00:28:39;;;;;;;0.00;0.00;;;16.90;99.90;;;;;;5096037;28;20023;-86
2023/05/06 00:31:05;;;;;;;0.10;0.10;;;17.00;99.90;;;;;;5095705;28;20106;-86
2023/05/06 00:33:30;;;;;;;0.10;0.10;;;16.80;99.90;;;;;;5096258;28;20020;-87
2023/05/06 00:35:56;;;;;;;0.30;0.30;;;16.70;99.90;;;;;;5095723;28;20028;-86
2023/05/06 00:38:22;;;;;;;0.38;0.38;;;16.70;99.90;;;;;;5095963;28;20024;-87
2023/05/06 00:40:47;;;;;;;0.20;0.20;;;16.70;99.90;;;;;;5095625;28;20391;-86
2023/05/06 00:43:13;;;;;;;0.10;0.10;;;16.70;99.90;;;;;;5095775;28;20021;-86
2023/05/06 00:45:39;;;;;;;0.10;0.10;;;16.60;99.90;;;;;;5096054;28;20039;-86
2023/05/06 00:48:06;;;;;;;0.17;0.17;;;16.50;99.90;;;;;;5075819;28;20021;-87
2023/05/06 00:50:33;;;;;;;0.30;0.30;;;16.60;99.90;;;;;;5075131;28;20055;-86
2023/05/06 00:53:01;;;;;;;0.63;0.20;;;16.60;99.90;;;;;;5075219;28;20033;-86
2023/05/06 00:55:27;;;;;;;0.17;0.17;;;16.60;99.90;;;;;;5075230;28;20549;-86
2023/05/06 00:57:53;;;;;;;0.10;0.10;;;16.50;99.90;;;;;;5075317;28;20103;-87
2023/05/06 01:00:20;;;;;;;0.00;0.00;;;16.50;99.90;;;;;;5073857;28;20103;-86
2023/05/06 01:02:46;;;;;;;0.20;0.20;;;16.50;99.90;;;;;;5075008;28;20030;-87
2023/05/06 01:05:12;;;;;;;0.20;0.20;;;16.40;99.90;;;;;;5074354;28;20084;-86
2023/05/06 01:07:51;;;;;;;0.10;0.10;;;16.40;99.90;;;;;;5075137;28;20107;-87
2023/05/06 01:10:18;;;;;;;0.20;0.20;;;16.50;99.90;;;;;;5075304;28;20029;-87
2023/05/06 01:12:52;;;;;;;0.15;0.15;;;16.30;99.90;;;;;;5073600;28;20020;-86
2023/05/06 01:15:35;;;;;;;0.10;0.10;;;16.20;99.90;;;;;;5074635;28;20090;-86
2023/05/06 01:18:07;;;;;;;0.15;0.15;;;16.30;99.90;;;;;;5074408;28;20024;-86
2023/05/06 01:20:33;;;;;;;0.10;0.10;;;16.30;99.90;;;;;;5083674;28;20044;-86
2023/05/06 01:23:00;;;;;;;0.30;0.30;;;16.30;99.90;;;;;;5093786;28;20020;-86
2023/05/06 01:25:26;;;;;;;0.10;0.10;;;16.30;99.90;;;;;;5095175;28;20028;-87
2023/05/06 01:27:52;;;;;;;0.10;0.10;;;16.30;99.90;;;;;;5094800;28;20103;-86
2023/05/06 01:30:19;;;;;;;0.00;0.00;;;16.30;99.90;;;;;;5094927;28;20059;-86
2023/05/06 01:32:54;;;;;;;0.03;0.03;;;16.20;99.90;;;;;;5094635;28;20081;-87
2023/05/06 01:35:35;;;;;;;0.10;0.10;;;16.10;99.90;;;;;;5094587;28;20111;-86
2023/05/06 01:38:18;;;;;;;0.17;0.17;;;16.10;99.90;;;;;;5094803;28;20032;-87
2023/05/06 01:40:48;;;;;;;0.20;0.17;;;16.20;99.90;;;;;;5094948;28;20072;-86
2023/05/06 01:43:17;;;;;;;0.15;0.15;;;16.10;99.90;;;;;;5094634;28;20020;-86
2023/05/06 01:45:48;;;;;;;0.22;0.22;;;16.00;99.90;;;;;;5094601;28;20059;-86
2023/05/06 01:48:14;;;;;;;0.20;0.20;;;16.00;99.90;;;;;;5093000;28;20448;-87
2023/05/06 01:50:40;;;;;;;0.70;0.40;;;16.00;99.90;;;;;;5093250;28;20028;-86
2023/05/06 01:53:05;;;;;;;0.13;0.13;;;15.90;99.90;;;;;;5093129;28;20020;-85
2023/05/06 01:55:31;;;;;;;0.20;0.20;;;15.70;99.90;;;;;;5093238;28;20081;-87
2023/05/06 01:57:57;;;;;;;0.28;0.28;;;15.50;99.90;;;;;;5094801;28;20077;-86
2023/05/06 02:00:26;;;;;;;0.10;0.10;;;15.40;99.90;;;;;;5093068;28;20035;-86
2023/05/06 02:02:52;;;;;;;0.30;0.30;;;15.60;99.90;;;;;;5093863;28;20092;-86
2023/05/06 02:05:17;;;;;;;0.65;0.52;;;15.60;99.90;;;;;;5094817;28;20103;-86
2023/05/06 02:07:43;;;;;;;0.85;0.45;;;15.50;99.90;;;;;;5093816;28;20032;-86
2023/05/06 02:10:10;;;;;;;0.20;0.20;;;15.40;99.90;;;;;;5094302;28;20536;-86
2023/05/06 02:12:35;;;;;;;0.10;0.10;;;15.50;99.90;;;;;;5092713;28;20024;-87
2023/05/06 02:15:01;;;;;;;0.10;0.10;;;15.60;99.90;;;;;;5094309;28;20488;-86
2023/05/06 02:17:26;;;;;;;0.10;0.10;;;15.60;99.90;;;;;;5093690;28;20032;-86
2023/05/06 02:19:52;;;;;;;0.00;0.00;;;15.50;99.90;;;;;;5092664;28;20047;-87
2023/05/06 02:22:18;;;;;;;0.20;0.20;;;15.50;99.90;;;;;;5093991;28;20032;-86
2023/05/06 02:24:43;;;;;;;0.10;0.10;;;15.50;99.90;;;;;;5093926;28;20031;-87
2023/05/06 02:27:09;;;;;;;0.10;0.10;;;15.50;99.90;;;;;;5093872;28;20024;-87
2023/05/06 02:29:34;;;;;;;0.00;0.00;;;15.50;99.90;;;;;;5093983;28;20024;-87
2023/05/06 02:32:00;;;;;;;0.00;0.00;;;15.40;99.90;;;;;;5093629;28;20035;-86
2023/05/06 02:34:26;;;;;;;0.22;0.22;;;15.40;99.90;;;;;;5093894;28;20039;-86
2023/05/06 02:36:51;;;;;;;0.10;0.10;;;15.20;99.90;;;;;;5093989;28;20376;-86
2023/05/06 02:39:17;;;;;;;0.35;0.32;;;15.40;99.90;;;;;;5093487;28;20032;-86
2023/05/06 02:41:43;;;;;;;0.10;0.10;;;15.40;99.90;;;;;;5093548;28;20064;-86
2023/05/06 02:44:08;;;;;;;0.00;0.00;;;15.40;99.90;;;;;;5093874;28;20388;-86
2023/05/06 02:46:34;;;;;;;0.10;0.10;;;15.20;99.90;;;;;;5092950;28;20016;-87
2023/05/06 02:49:00;;;;;;;0.10;0.10;;;15.20;99.90;;;;;;5093532;28;20031;-86
2023/05/06 02:51:26;;;;;;;0.00;0.00;;;15.30;99.90;;;;;;5093846;28;20020;-87
2023/05/06 02:53:52;;;;;;;0.08;0.08;;;15.20;99.90;;;;;;5093337;28;20039;-86
2023/05/06 02:56:17;;;;;;;0.30;0.10;;;15.20;99.90;;;;;;5093818;28;20024;-85
2023/05/06 02:58:43;;;;;;;0.10;0.10;;;15.20;99.90;;;;;;5092032;28;20472;-86
2023/05/06 03:01:08;;;;;;;0.20;0.20;;;15.20;99.90;;;;;;5092954;28;20082;-86
2023/05/06 03:03:34;;;;;;;0.10;0.10;;;15.20;99.90;;;;;;5093363;28;20040;-86
2023/05/06 03:06:00;;;;;;;0.10;0.10;;;15.10;99.90;;;;;;5093346;28;20563;-86
2023/05/06 03:08:25;;;;;;;0.10;0.10;;;14.90;99.90;;;;;;5093120;28;20016;-86
2023/05/06 03:10:51;;;;;;;0.30;0.20;;;15.10;99.90;;;;;;5093103;28;20418;-87
2023/05/06 03:13:17;;;;;;;0.10;0.10;;;15.00;99.90;;;;;;5093213;28;20023;-85
2023/05/06 03:15:43;;;;;;;0.10;0.10;;;15.00;99.90;;;;;;5092734;28;20028;-86
2023/05/06 03:18:08;;;;;;;0.20;0.20;;;14.90;99.90;;;;;;5093033;28;20081;-86
2023/05/06 03:20:34;;;;;;;0.10;0.10;;;14.80;99.90;;;;;;5092602;28;20421;-87
2023/05/06 03:22:59;;;;;;;0.10;0.10;;;14.90;99.90;;;;;;5093675;28;20052;-86
2023/05/06 03:25:25;;;;;;;0.30;0.30;;;14.90;99.90;;;;;;5091504;28;20370;-86
2023/05/06 03:27:51;;;;;;;0.30;0.30;;;15.00;99.90;;;;;;5092852;28;20535;-87
2023/05/06 03:30:16;;;;;;;0.10;0.10;;;14.90;99.90;;;;;;5092575;28;20032;-86
2023/05/06 03:32:42;;;;;;;0.55;0.55;;;14.90;99.90;;;;;;5093045;28;20031;-86
2023/05/06 03:35:10;;;;;;;0.15;0.10;;;14.70;99.90;;;;;;5093011;28;20318;-87
2023/05/06 03:37:35;;;;;;;0.10;0.10;;;14.60;99.90;;;;;;5092962;28;20028;-86
2023/05/06 03:40:03;;;;;;;0.20;0.20;;;14.60;99.90;;;;;;5092864;28;20058;-86
2023/05/06 03:42:29;;;;;;;0.17;0.17;;;14.70;99.90;;;;;;5092852;28;20024;-86
2023/05/06 03:44:54;;;;;;;0.20;0.20;;;14.70;99.90;;;;;;5092683;28;20023;-87
2023/05/06 03:47:20;;;;;;;0.20;0.20;;;14.80;99.90;;;;;;5093037;28;20032;-87
2023/05/06 03:49:45;;;;;;;0.10;0.10;;;14.70;99.90;;;;;;5092901;28;20027;-86
2023/05/06 03:52:11;;;;;;;2.38;0.60;;;14.60;99.90;;;;;;5091620;28;20032;-86
2023/05/06 03:54:37;;;;;;;0.20;0.10;;;14.60;99.90;;;;;;5091660;28;20063;-87
2023/05/06 03:57:02;;;;;;;0.10;0.10;;;14.70;99.90;;;;;;5091414;28;20059;-86
2023/05/06 03:59:28;;;;;;;0.45;0.40;;;14.60;99.90;;;;;;5092599;28;20030;-86
2023/05/06 04:01:53;;;;;;;0.10;0.10;;;14.60;99.90;;;;;;5092663;28;20036;-86
2023/05/06 04:04:19;;;;;;;0.28;0.20;;;14.50;99.90;;;;;;5091874;28;20028;-86
2023/05/06 04:06:45;;;;;;;0.10;0.10;;;14.40;99.90;;;;;;5092721;28;20028;-87
2023/05/06 04:09:11;;;;;;;0.10;0.10;;;14.40;99.90;;;;;;5092442;28;20469;-86
2023/05/06 04:11:36;;;;;;;0.20;0.20;;;14.40;99.90;;;;;;5092630;28;20869;-87
2023/05/06 04:14:02;;;;;;;0.10;0.10;;;14.30;99.90;;;;;;5092614;28;20098;-87
2023/05/06 04:16:27;;;;;;;0.10;0.10;;;14.30;99.90;;;;;;5092650;28;20024;-86
2023/05/06 04:18:54;;;;;;;0.22;0.22;;;14.30;99.90;;;;;;5092718;28;20063;-86
2023/05/06 04:21:19;;;;;;;0.10;0.10;;;14.30;99.90;;;;;;5091183;28;20113;-86
2023/05/06 04:23:45;;;;;;;0.10;0.10;;;14.40;99.90;;;;;;5092930;28;20067;-86
2023/05/06 04:26:11;;;;;;;0.20;0.20;;;14.30;99.90;;;;;;5092550;28;20032;-86
2023/05/06 04:28:36;;;;;;;0.10;0.10;;;14.40;99.90;;;;;;5092574;28;20032;-86
2023/05/06 04:31:02;;;;;;;0.25;0.25;;;14.40;99.90;;;;;;5092687;28;20385;-86
2023/05/06 04:33:28;;;;;;;0.13;0.13;;;14.30;99.90;;;;;;5091238;28;20028;-86
2023/05/06 04:35:55;;;;;;;0.20;0.20;;;14.20;99.90;;;;;;5091044;28;20069;-86
2023/05/06 04:38:22;;;;;;;0.10;0.10;;;14.20;99.90;;;;;;5091366;28;20028;-86
2023/05/06 04:40:48;;;;;;;0.10;0.10;;;14.30;99.90;;;;;;5094826;28;20036;-86
2023/05/06 04:43:15;;;;;;;0.35;0.30;;;14.20;99.90;;;;;;5096051;28;20495;-85
2023/05/06 04:45:48;;;;;;;0.60;0.60;;;14.20;99.90;;;;;;5096598;28;20036;-87
2023/05/06 04:48:21;;;;;;;0.10;0.10;;;14.10;99.90;;;;;;5096039;28;20032;-86
2023/05/06 04:50:47;;;;;;;0.47;0.45;;;14.00;99.90;;;;;;5095913;28;20016;-86
2023/05/06 04:53:13;;;;;;;0.22;0.22;;;13.90;99.90;;;;;;5095992;28;20525;-86
2023/05/06 04:55:39;;;;;;;0.20;0.20;;;13.90;99.90;;;;;;5094237;28;20043;-86
2023/05/06 04:58:05;;;;;;;0.10;0.10;;;14.00;99.90;;;;;;5095792;28;20469;-86
2023/05/06 05:00:31;;;;;;;0.38;0.38;;;14.00;99.90;;;;;;5095480;28;20039;-86
2023/05/06 05:02:56;;;;;;;0.10;0.10;;;13.90;99.90;;;;;;5095849;28;20032;-86
2023/05/06 05:05:23;;;;;;;0.52;0.52;;;14.00;99.90;;;;;;5095695;28;20105;-86
2023/05/06 05:07:49;;;;;;;0.32;0.32;;;14.00;99.90;;;;;;5095653;28;20035;-87
2023/05/06 05:10:14;;;;;;;0.10;0.10;;;14.10;99.90;;;;;;5095377;28;20028;-86
2023/05/06 05:12:40;;;;;;;0.17;0.17;;;14.10;99.90;;;;;;5095600;28;20020;-86
2023/05/06 05:15:06;;;;;;;0.45;0.45;;;14.20;99.90;;;;;;5094456;28;20052;-86
2023/05/06 05:17:31;;;;;;;0.20;0.20;;;14.20;99.90;;;;;;5095320;28;20103;-85
2023/05/06 05:19:57;;;;;;;0.20;0.20;;;14.30;99.90;;;;;;5093813;28;20101;-86
2023/05/06 05:22:23;;;;;;;0.13;0.13;;;14.40;99.90;;;;;;5095307;28;20032;-86
2023/05/06 05:24:48;;;;;;;0.20;0.20;;;14.60;99.90;;;;;;5095079;28;20487;-86
2023/05/06 05:27:14;;;;;;;0.40;0.40;;;14.60;99.90;;;;;;5095301;28;20550;-85
2023/05/06 05:29:40;;;;;;;0.45;0.45;;;14.60;99.90;;;;;;5095364;28;20423;-86
2023/05/06 05:32:05;;;;;;;0.20;0.10;;;14.60;99.90;;;;;;5093545;28;20028;-85
2023/05/06 05:34:31;;;;;;;0.57;0.57;;;14.60;99.90;;;;;;5095143;28;20107;-86
2023/05/06 05:36:57;;;;;;;0.85;0.63;;;14.60;99.90;;;;;;5095207;28;20044;-86
2023/05/06 05:39:22;;;;;;;0.20;0.20;;;14.70;99.90;;;;;;5094107;28;20027;-86
2023/05/06 05:41:48;;;;;;;0.20;0.20;;;14.70;99.90;;;;;;5094669;28;20035;-86
2023/05/06 05:44:14;;;;;;;0.32;0.30;;;14.70;99.90;;;;;;5094760;28;20028;-86
2023/05/06 05:46:41;;;;;;;0.22;0.22;;;14.70;99.90;;;;;;5094712;28;20080;-86
2023/05/06 05:49:06;;;;;;;1.20;0.70;;;14.80;99.90;;;;;;5094655;28;20101;-86
2023/05/06 05:51:33;;;;;;;0.22;0.22;;;14.80;99.90;;;;;;5094611;28;20077;-86
2023/05/06 05:53:58;;;;;;;0.30;0.20;;;14.80;99.90;;;;;;5092717;28;20028;-86
2023/05/06 05:56:24;;;;;;;0.20;0.20;;;14.80;99.90;;;;;;5093158;28;20048;-86
2023/05/06 05:58:50;;;;;;;0.10;0.10;;;15.00;99.90;;;;;;5093360;28;20468;-86
2023/05/06 06:01:17;;;;;;;0.43;0.15;;;15.20;99.90;;;;;;5094420;28;20042;-86
2023/05/06 06:03:42;;;;;;;0.15;0.15;;;15.20;99.90;;;;;;5094269;28;20027;-86
2023/05/06 06:06:08;;;;;;;0.50;0.50;;;15.20;99.90;;;;;;5094242;28;20081;-86
2023/05/06 06:08:34;;;;;;;0.10;0.10;;;15.20;99.90;;;;;;5091982;28;20387;-86
2023/05/06 06:11:04;;;;;;;0.20;0.20;;;15.30;99.90;;;;;;5092537;28;20396;-86
2023/05/06 06:13:30;;;;;;;0.15;0.13;;;15.40;99.90;;;;;;5093981;28;20438;-86
2023/05/06 06:15:56;;;;;;;0.05;0.05;;;15.70;99.90;;;;;;5094040;28;20024;-86
2023/05/06 06:18:22;;;;;;;0.30;0.30;;;15.90;99.90;;;;;;5093428;28;20103;-86
2023/05/06 06:20:47;;;;;;;0.10;0.10;;;16.00;99.90;;;;;;5093452;28;20051;-86
2023/05/06 06:23:13;;;;;;;0.52;0.52;;;16.10;99.90;;;;;;5091795;28;20472;-86
2023/05/06 06:25:38;;;;;;;0.30;0.30;;;16.30;99.90;;;;;;5092932;28;20039;-85
2023/05/06 06:28:04;;;;;;;0.00;0.00;;;16.30;99.90;;;;;;5093537;28;20129;-86
2023/05/06 06:30:30;;;;;;;0.10;0.10;;;16.30;99.90;;;;;;5093336;28;20533;-86
2023/05/06 06:32:57;;;;;;;0.10;0.10;;;16.30;99.90;;;;;;5092427;28;20043;-86
2023/05/06 06:35:23;;;;;;;0.10;0.10;;;16.20;99.90;;;;;;5092110;28;20488;-87
2023/05/06 06:37:49;;;;;;;0.20;0.20;;;16.30;99.90;;;;;;5091851;28;20024;-86
2023/05/06 06:40:16;;;;;;;0.52;0.43;;;16.50;99.90;;;;;;5093054;28;20032;-86
2023/05/06 06:42:41;;;;;;;0.10;0.10;;;16.70;99.90;;;;;;5093215;28;20085;-86
2023/05/06 06:45:08;;;;;;;0.20;0.20;;;16.60;99.90;;;;;;5093688;28;20039;-93
2023/05/06 06:47:34;;;;;;;0.40;0.40;;;16.90;99.90;;;;;;5094619;28;20419;-91
2023/05/06 06:50:00;;;;;;;0.20;0.20;;;17.20;99.90;;;;;;5095140;28;20077;-94
2023/05/06 06:52:25;;;;;;;0.20;0.20;;;17.30;99.90;;;;;;5094814;28;20035;-91
2023/05/06 06:54:51;;;;;;;0.10;0.10;;;17.50;99.90;;;;;;5095099;28;20027;-89
2023/05/06 06:57:17;;;;;;;0.20;0.20;;;17.50;99.90;;;;;;5093413;28;20056;-90
2023/05/06 06:59:42;;;;;;;0.20;0.20;;;17.50;99.90;;;;;;5094405;28;20099;-85
2023/05/06 07:02:08;;;;;;;0.10;0.10;;;17.50;99.90;;;;;;5092137;28;20036;-85
2023/05/06 07:04:34;;;;;;;0.10;0.10;;;17.50;99.90;;;;;;5092889;28;20116;-85
2023/05/06 07:06:59;;;;;;;0.22;0.22;;;17.60;99.90;;;;;;5093471;28;20024;-85
2023/05/06 07:09:25;;;;;;;0.32;0.32;;;17.60;99.90;;;;;;5093257;28;20024;-86
2023/05/06 07:11:50;;;;;;;0.13;0.13;;;17.80;99.90;;;;;;5092704;28;20020;-85
2023/05/06 07:14:16;;;;;;;0.00;0.00;;;17.80;99.90;;;;;;5092699;28;20384;-85
2023/05/06 07:16:41;;;;;;;0.32;0.30;;;17.80;99.90;;;;;;5091260;28;20492;-85
2023/05/06 07:19:07;;;;;;;0.10;0.10;;;17.90;99.90;;;;;;5092905;28;20059;-85
2023/05/06 07:21:34;;;;;;;0.30;0.30;;;17.90;99.90;;;;;;5092085;28;20048;-86
2023/05/06 07:23:59;;;;;;;0.13;0.13;;;17.90;99.90;;;;;;5092492;28;20031;-86
2023/05/06 07:26:25;;;;;;;0.38;0.38;;;18.10;99.90;;;;;;5092712;28;20035;-86
2023/05/06 07:28:51;;;;;;;0.32;0.17;;;18.10;99.90;;;;;;5092899;28;20107;-86
2023/05/06 07:31:19;;;;;;;0.20;0.20;;;18.00;99.90;;;;;;5092468;28;20383;-86
2023/05/06 07:33:46;;;;;;;0.20;0.20;;;18.10;99.90;;;;;;5092372;28;20785;-85
2023/05/06 07:36:12;;;;;;;0.10;0.10;;;18.10;99.90;;;;;;5092861;28;20028;-85
2023/05/06 07:38:38;;;;;;;0.20;0.10;;;18.10;99.90;;;;;;5092276;28;20023;-85
2023/05/06 07:41:04;;;;;;;0.32;0.32;;;18.10;99.90;;;;;;5092522;28;20515;-85
2023/05/06 07:43:30;;;;;;;0.32;0.20;;;18.20;99.90;;;;;;5092352;28;20046;-85
2023/05/06 07:46:01;;;;;;;0.32;0.25;;;18.30;99.90;;;;;;5091968;28;20040;-85
2023/05/06 07:48:31;;;;;;;0.00;0.00;;;18.30;99.90;;;;;;5092347;28;20361;-85
2023/05/06 07:50:58;;;;;;;0.10;0.10;;;18.50;99.90;;;;;;5091744;28;20499;-85
2023/05/06 07:53:24;;;;;;;0.15;0.15;;;18.40;99.90;;;;;;5094194;28;20024;-85
2023/05/06 07:55:51;;;;;;;0.10;0.10;;;18.50;99.90;;;;;;5092092;28;20028;-86
2023/05/06 07:58:17;;;;;;;0.20;0.20;;;18.60;99.90;;;;;;5092258;28;20028;-85
2023/05/06 08:00:43;;;;;;;0.10;0.10;;;18.70;99.90;;;;;;5092225;28;20077;-85
2023/05/06 08:03:09;;;;;;;0.73;0.52;;;18.80;99.90;;;;;;5091982;28;20032;-85
2023/05/06 08:05:35;;;;;;;0.10;0.10;;;18.70;99.90;;;;;;5092192;28;20055;-85
2023/05/06 08:08:00;;;;;;;0.10;0.10;;;18.90;99.90;;;;;;5090823;28;20031;-85
2023/05/06 08:10:26;;;;;;;0.20;0.20;;;19.00;99.90;;;;;;5091825;28;20430;-86
2023/05/06 08:12:52;;;;;;;0.45;0.32;;;19.20;99.90;;;;;;5092249;28;20035;-86
2023/05/06 08:15:18;;;;;;;0.22;0.20;;;19.20;99.90;;;;;;5096225;28;20388;-85
2023/05/06 08:17:43;;;;;;;0.00;0.00;;;19.20;99.90;;;;;;5095909;28;20115;-85
2023/05/06 08:20:10;;;;;;;0.20;0.20;;;19.20;99.90;;;;;;5094983;28;20119;-85
2023/05/06 08:22:35;;;;;;;0.00;0.00;;;19.40;99.90;;;;;;5096235;28;20032;-85
2023/05/06 08:25:01;;;;;;;0.20;0.20;;;19.10;99.90;;;;;;5095601;28;20062;-85
2023/05/06 08:27:27;;;;;;;0.10;0.10;;;19.30;99.90;;;;;;5094558;28;20089;-85
2023/05/06 08:29:53;;;;;;;0.10;0.10;;;19.40;99.90;;;;;;5095369;28;20024;-86
2023/05/06 08:32:18;;;;;;;0.00;0.00;;;19.50;99.90;;;;;;5095773;28;20036;-86
2023/05/06 08:34:44;;;;;;;0.00;0.00;;;19.60;99.90;;;;;;5095164;28;20419;-85
2023/05/06 08:37:09;;;;;;;0.25;0.20;;;19.80;99.90;;;;;;5095714;28;20472;-86
2023/05/06 08:39:35;;;;;;;0.30;0.30;;;19.70;99.90;;;;;;5095640;28;20020;-86
2023/05/06 08:42:02;;;;;;;0.77;0.40;;;19.70;99.90;;;;;;5094605;28;20036;-85
2023/05/06 08:44:28;;;;;;;0.22;0.22;;;19.70;99.90;;;;;;5095585;28;20016;-85
2023/05/06 08:46:54;;;;;;;1.27;0.50;;;19.80;99.90;;;;;;5095263;28;20034;-85
2023/05/06 08:49:20;;;;;;;1.40;0.60;;;19.90;99.90;;;;;;5096825;28;20040;-93
2023/05/06 08:51:49;;;;;;;0.20;0.20;;;20.10;99.90;;;;;;5096897;28;20024;-94
2023/05/06 08:54:16;;;;;;;0.10;0.10;;;20.10;99.90;;;;;;5096776;28;20388;-93
2023/05/06 08:56:47;;;;;;;0.30;0.30;;;20.20;99.90;;;;;;5096664;28;20031;-93
2023/05/06 08:59:12;;;;;;;0.28;0.25;;;20.30;99.90;;;;;;5096879;28;20031;-93
2023/05/06 09:01:39;;;;;;;0.25;0.25;;;20.40;99.90;;;;;;5096748;28;20094;-93
2023/05/06 09:04:06;;;;;;;0.13;0.13;;;20.50;99.90;;;;;;5096345;28;20028;-93
2023/05/06 09:06:33;;;;;;;0.47;0.47;;;20.50;99.90;;;;;;5096837;28;20161;-93
2023/05/06 09:08:58;;;;;;;0.13;0.13;;;20.50;99.90;;;;;;5096409;28;20028;-93
2023/05/06 09:11:28;;;;;;;0.10;0.10;;;20.60;99.90;;;;;;5096323;28;20106;-93
2023/05/06 09:14:11;;;;;;;0.57;0.57;;;20.60;99.90;;;;;;5096475;28;20020;-94
2023/05/06 09:16:38;;;;;;;0.22;0.22;;;20.60;99.90;;;;;;5096385;28;20396;-93
2023/05/06 09:19:05;;;;;;;0.20;0.20;;;20.70;99.90;;;;;;5096085;28;20048;-93
2023/05/06 09:21:34;;;;;;;0.40;0.30;;;20.90;99.90;;;;;;5096167;28;20244;-93
2023/05/06 09:24:01;;;;;;;0.17;0.17;;;21.00;99.90;;;;;;5096485;28;20034;-93
2023/05/06 09:26:31;;;;;;;0.08;0.08;;;20.90;99.90;;;;;;5094591;28;20069;-93
2023/05/06 09:28:58;;;;;;;0.13;0.13;;;21.00;99.90;;;;;;5097120;28;20026;-93
2023/05/06 09:31:25;;;;;;;0.50;0.15;;;21.20;99.90;;;;;;5095551;28;20073;-93
2023/05/06 09:33:51;;;;;;;0.30;0.30;;;21.40;99.90;;;;;;5096115;28;20027;-93
2023/05/06 09:36:17;;;;;;;0.28;0.28;;;21.50;99.90;;;;;;5095931;28;20039;-93
2023/05/06 09:38:43;;;;;;;0.73;0.15;;;21.50;99.90;;;;;;5096186;28;20028;-93
2023/05/06 09:41:10;;;;;;;0.20;0.20;;;21.50;99.90;;;;;;5094378;28;20031;-93
2023/05/06 09:43:36;;;;;;;0.75;0.55;;;21.60;99.90;;;;;;5095877;28;20028;-93
2023/05/06 09:46:04;;;;;;;0.65;0.60;;;21.90;99.90;;;;;;5095348;28;20032;-94
2023/05/06 09:48:31;;;;;;;0.60;0.60;;;21.70;99.90;;;;;;5095727;28;20020;-93
2023/05/06 09:50:57;;;;;;;0.80;0.38;;;21.80;99.90;;;;;;5095747;28;20086;-93
2023/05/06 09:53:24;;;;;;;1.90;0.73;;;21.70;99.90;;;;;;5096135;28;20061;-93
2023/05/06 09:55:50;;;;;;;0.50;0.50;;;21.60;99.90;;;;;;5095529;28;20028;-93
2023/05/06 09:58:16;;;;;;;0.85;0.63;;;21.60;99.90;;;;;;5095920;28;20038;-93
2023/05/06 10:00:44;;;;;;;0.25;0.20;;;21.30;99.90;;;;;;5095147;28;20075;-93
2023/05/06 10:03:11;;;;;;;0.10;0.10;;;21.40;99.90;;;;;;5095514;28;20107;-93
2023/05/06 10:05:38;;;;;;;0.82;0.20;;;21.70;99.90;;;;;;5095354;28;20028;-93
2023/05/06 10:08:04;;;;;;;0.10;0.10;;;21.70;99.90;;;;;;5095261;28;20031;-93
2023/05/06 10:10:30;;;;;;;1.00;0.40;;;21.90;99.90;;;;;;5095535;28;20032;-94
2023/05/06 10:12:56;;;;;;;0.20;0.20;;;22.00;99.90;;;;;;5095404;28;20020;-93
2023/05/06 10:15:24;;;;;;;0.10;0.10;;;22.10;99.90;;;;;;5094915;28;20530;-94
2023/05/06 10:17:52;;;;;;;0.30;0.30;;;22.30;99.90;;;;;;5095204;28;20511;-94
2023/05/06 10:20:20;;;;;;;0.28;0.28;;;22.20;99.90;;;;;;5094945;28;20106;-94
2023/05/06 10:23:08;;;;;;;0.30;0.30;;;22.40;99.90;;;;;;5095371;28;20404;-93
2023/05/06 10:25:44;;;;;;;0.20;0.20;;;22.50;99.90;;;;;;5095007;28;20028;-93
2023/05/06 10:28:11;;;;;;;0.20;0.20;;;22.70;99.90;;;;;;5095175;28;20081;-93
2023/05/06 10:30:38;;;;;;;0.05;0.05;;;22.50;99.90;;;;;;5094614;28;20412;-93
2023/05/06 10:33:08;;;;;;;0.20;0.20;;;22.50;99.90;;;;;;5094884;28;20028;-93
2023/05/06 10:35:40;;;;;;;0.40;0.40;;;22.40;99.90;;;;;;5094711;28;20028;-93
2023/05/06 10:38:15;;;;;;;0.40;0.40;;;22.60;99.90;;;;;;5094866;28;20023;-93
2023/05/06 10:40:42;;;;;;;1.15;0.68;;;22.60;99.90;;;;;;5095154;28;20038;-94
2023/05/06 10:43:24;;;;;;;0.22;0.13;;;22.80;99.90;;;;;;5094743;28;20031;-93
2023/05/06 10:46:10;;;;;;;0.10;0.10;;;22.90;99.90;;;;;;5094977;28;20024;-95
2023/05/06 10:48:38;;;;;;;0.40;0.40;;;22.90;99.90;;;;;;5074349;28;20476;-94
2023/05/06 10:51:12;;;;;;;0.30;0.30;;;23.20;99.90;;;;;;5074560;28;20056;-95
2023/05/06 10:53:58;;;;;;;0.20;0.20;;;23.50;99.90;;;;;;5074340;28;20031;-94
2023/05/06 10:56:25;;;;;;;0.28;0.20;;;23.60;99.90;;;;;;5075143;28;20057;-94
2023/05/06 10:58:53;;;;;;;0.40;0.35;;;23.80;99.90;;;;;;5074133;28;20020;-93
2023/05/06 11:01:26;;;;;;;0.20;0.20;;;23.90;99.90;;;;;;5074205;28;20037;-94
2023/05/06 11:03:51;;;;;;;0.32;0.25;;;23.90;99.90;;;;;;5074105;28;20384;-94
2023/05/06 11:06:33;;;;;;;0.13;0.13;;;24.10;99.90;;;;;;5074087;28;20103;-94
2023/05/06 11:09:00;;;;;;;0.20;0.20;;;24.40;99.90;;;;;;5074630;28;20024;-94
2023/05/06 11:12:01;;;;;;;0.10;0.10;;;24.40;99.90;;;;;;5074010;28;20373;-94
2023/05/06 11:14:34;;;;;;;0.20;0.20;;;24.50;99.90;;;;;;5073863;28;20020;-93
2023/05/06 11:17:05;;;;;;;1.17;0.65;;;24.50;99.90;;;;;;5073856;28;20044;-94
2023/05/06 11:19:36;;;;;;;0.10;0.10;;;24.70;99.90;;;;;;5074866;28;20093;-94
2023/05/06 11:22:03;;;;;;;0.17;0.17;;;24.70;99.90;;;;;;5094327;28;20050;-94
2023/05/06 11:24:30;;;;;;;0.75;0.47;;;25.00;99.90;;;;;;5094258;28;20020;-94
2023/05/06 11:26:57;;;;;;;0.13;0.13;;;25.40;99.90;;;;;;5094227;28;20024;-95
2023/05/06 11:29:24;;;;;;;0.00;0.00;;;25.60;99.90;;;;;;5094097;28;20101;-94
2023/05/06 11:31:51;;;;;;;0.20;0.20;;;25.80;99.90;;;;;;5094383;28;20039;-95
2023/05/06 11:34:28;;;;;;;0.35;0.35;;;26.50;99.90;;;;;;5094539;28;20028;-95
2023/05/06 11:37:01;;;;;;;0.40;0.40;;;27.10;99.90;;;;;;5094301;28;20024;-92
2023/05/06 11:39:30;;;;;;;0.22;0.15;;;27.30;99.90;;;;;;5094028;28;20012;-92
2023/05/06 11:42:06;;;;;;;0.20;0.20;;;27.70;99.90;;;;;;5093799;28;20040;-93
2023/05/06 11:44:36;;;;;;;0.17;0.17;;;28.00;99.90;;;;;;5093928;28;20099;-91
2023/05/06 11:47:07;;;;;;;0.00;0.00;;;28.20;99.90;;;;;;5093935;28;20503;-93
2023/05/06 11:49:42;;;;;;;0.13;0.13;;;28.40;99.90;;;;;;5097218;28;20024;-93
2023/05/06 11:52:11;;;;;;;0.08;0.08;;;28.90;99.90;;;;;;5098123;28;20024;-93
2023/05/06 11:54:39;;;;;;;0.20;0.20;;;29.10;99.90;;;;;;5098376;28;20052;-93
2023/05/06 11:57:05;;;;;;;0.10;0.10;;;29.10;99.90;;;;;;5097577;28;20024;-93
2023/05/06 11:59:36;;;;;;;0.20;0.20;;;29.60;99.90;;;;;;5098587;28;20024;-93
2023/05/06 12:02:04;;;;;;;0.28;0.28;;;29.50;99.90;;;;;;5097732;28;20119;-93
2023/05/06 12:04:45;;;;;;;0.10;0.10;;;30.00;99.90;;;;;;5097908;28;20028;-92
2023/05/06 12:07:12;;;;;;;0.30;0.30;;;30.40;99.90;;;;;;5097824;28;20058;-93
2023/05/06 12:09:44;;;;;;;1.17;0.75;;;30.60;99.90;;;;;;5098299;28;20111;-93
2023/05/06 12:12:13;;;;;;;0.10;0.10;;;30.80;99.90;;;;;;5097635;28;20027;-93
2023/05/06 12:14:39;;;;;;;0.17;0.17;;;31.10;99.90;;;;;;5098035;28;20064;-93
2023/05/06 12:17:05;;;;;;;0.30;0.30;;;31.40;99.90;;;;;;5097916;28;20021;-94
2023/05/06 12:19:32;;;;;;;0.00;0.00;;;31.80;99.90;;;;;;5098034;28;20048;-93
2023/05/06 12:22:14;;;;;;;0.10;0.10;;;31.40;99.90;;;;;;5097893;28;20044;-93
2023/05/06 12:24:40;;;;;;;0.22;0.22;;;31.80;99.90;;;;;;5097627;28;20054;-93
2023/05/06 12:27:05;;;;;;;0.10;0.10;;;32.20;99.90;;;;;;5097235;28;20024;-93
2023/05/06 12:29:31;;;;;;;0.17;0.17;;;32.30;99.90;;;;;;5097316;28;20063;-93
2023/05/06 12:32:10;;;;;;;0.30;0.30;;;32.50;99.90;;;;;;5097852;28;20016;-93
2023/05/06 12:34:40;;;;;;;0.30;0.25;;;31.00;99.90;;;;;;5097543;28;20047;-93
2023/05/06 12:37:07;;;;;;;0.20;0.20;;;30.40;99.90;;;;;;5097922;28;20028;-92
2023/05/06 12:39:38;;;;;;;0.10;0.10;;;31.50;99.90;;;;;;5096812;28;20396;-90
2023/05/06 12:42:04;;;;;;;0.10;0.10;;;32.20;99.90;;;;;;5086413;28;20028;-85
2023/05/06 12:44:37;;;;;;;0.22;0.22;;;32.50;99.90;;;;;;5083878;28;20028;-84
2023/05/06 12:47:09;;;;;;;0.10;0.10;;;32.10;99.90;;;;;;5091989;28;20028;-84
2023/05/06 12:49:44;;;;;;;0.30;0.30;;;32.20;99.90;;;;;;5095715;28;20026;-89